sensor_id;sensor_type;location;lat;lon;timestamp;P1;durP1;ratioP1;P2;durP2;ratioP2
80381;SDS011;69692;55.820;37.490;2023-07-29T00:01:30;3.88;;;3.00;;
80381;SDS011;69692;55.820;37.490;2023-07-29T00:03:57;5.90;;;2.72;;
80381;SDS011;69692;55.820;37.490;2023-07-29T00:06:23;5.53;;;3.10;;
80381;SDS011;69692;55.820;37.490;2023-07-29T00:08:49;4.40;;;3.90;;
80381;SDS011;69692;55.820;37.490;2023-07-29T00:11:15;4.05;;;3.33;;
80381;SDS011;69692;55.820;37.490;2023-07-29T00:13:41;4.45;;;3.22;;
80381;SDS011;69692;55.820;37.490;2023-07-29T00:16:06;4.70;;;2.60;;
80381;SDS011;69692;55.820;37.490;2023-07-29T00:18:32;3.63;;;2.75;;
80381;SDS011;69692;55.820;37.490;2023-07-29T00:20:58;4.25;;;2.75;;
80381;SDS011;69692;55.820;37.490;2023-07-29T00:23:24;3.95;;;3.55;;
80381;SDS011;69692;55.820;37.490;2023-07-29T00:25:50;5.75;;;3.95;;
80381;SDS011;69692;55.820;37.490;2023-07-29T00:28:16;5.57;;;2.92;;
80381;SDS011;69692;55.820;37.490;2023-07-29T00:30:44;4.13;;;3.60;;
80381;SDS011;69692;55.820;37.490;2023-07-29T00:33:09;6.60;;;3.13;;
80381;SDS011;69692;55.820;37.490;2023-07-29T00:35:38;5.22;;;3.45;;
80381;SDS011;69692;55.820;37.490;2023-07-29T00:38:03;5.00;;;3.55;;
80381;SDS011;69692;55.820;37.490;2023-07-29T00:40:29;4.28;;;2.65;;
80381;SDS011;69692;55.820;37.490;2023-07-29T00:45:26;10.82;;;4.13;;
80381;SDS011;69692;55.820;37.490;2023-07-29T00:47:52;4.68;;;3.00;;
80381;SDS011;69692;55.820;37.490;2023-07-29T00:50:18;7.65;;;3.53;;
80381;SDS011;69692;55.820;37.490;2023-07-29T00:52:44;3.70;;;3.00;;
80381;SDS011;69692;55.820;37.490;2023-07-29T00:55:10;5.93;;;2.58;;
80381;SDS011;69692;55.820;37.490;2023-07-29T00:57:36;4.85;;;2.95;;
80381;SDS011;69692;55.820;37.490;2023-07-29T01:00:04;6.10;;;3.35;;
80381;SDS011;69692;55.820;37.490;2023-07-29T01:02:33;5.97;;;3.05;;
80381;SDS011;69692;55.820;37.490;2023-07-29T01:05:00;6.55;;;3.65;;
80381;SDS011;69692;55.820;37.490;2023-07-29T01:13:05;4.95;;;2.92;;
80381;SDS011;69692;55.820;37.490;2023-07-29T01:15:47;5.35;;;2.83;;
80381;SDS011;69692;55.820;37.490;2023-07-29T01:18:26;5.07;;;3.33;;
80381;SDS011;69692;55.820;37.490;2023-07-29T01:20:59;4.80;;;3.35;;
80381;SDS011;69692;55.820;37.490;2023-07-29T01:23:31;4.47;;;3.67;;
80381;SDS011;69692;55.820;37.490;2023-07-29T01:25:58;5.15;;;3.95;;
80381;SDS011;69692;55.820;37.490;2023-07-29T01:28:25;4.97;;;3.70;;
80381;SDS011;69692;55.820;37.490;2023-07-29T01:30:54;4.47;;;2.85;;
80381;SDS011;69692;55.820;37.490;2023-07-29T01:33:27;4.57;;;2.90;;
80381;SDS011;69692;55.820;37.490;2023-07-29T01:36:03;3.80;;;2.90;;
80381;SDS011;69692;55.820;37.490;2023-07-29T01:38:37;6.53;;;3.10;;
80381;SDS011;69692;55.820;37.490;2023-07-29T01:41:07;5.28;;;3.35;;
80381;SDS011;69692;55.820;37.490;2023-07-29T01:43:34;8.82;;;3.88;;
80381;SDS011;69692;55.820;37.490;2023-07-29T01:46:09;4.18;;;3.05;;
80381;SDS011;69692;55.820;37.490;2023-07-29T01:48:38;5.28;;;3.75;;
80381;SDS011;69692;55.820;37.490;2023-07-29T01:51:04;5.65;;;4.15;;
80381;SDS011;69692;55.820;37.490;2023-07-29T01:53:31;4.53;;;3.85;;
80381;SDS011;69692;55.820;37.490;2023-07-29T01:55:57;7.05;;;4.78;;
80381;SDS011;69692;55.820;37.490;2023-07-29T01:58:23;5.93;;;4.20;;
80381;SDS011;69692;55.820;37.490;2023-07-29T02:00:49;8.02;;;3.63;;
80381;SDS011;69692;55.820;37.490;2023-07-29T02:03:15;7.38;;;3.53;;
80381;SDS011;69692;55.820;37.490;2023-07-29T02:05:41;5.35;;;3.35;;
80381;SDS011;69692;55.820;37.490;2023-07-29T02:08:09;6.53;;;3.75;;
80381;SDS011;69692;55.820;37.490;2023-07-29T02:10:37;4.40;;;3.03;;
80381;SDS011;69692;55.820;37.490;2023-07-29T02:13:03;6.00;;;3.40;;
80381;SDS011;69692;55.820;37.490;2023-07-29T02:15:31;4.35;;;3.40;;
80381;SDS011;69692;55.820;37.490;2023-07-29T02:17:57;4.97;;;3.25;;
80381;SDS011;69692;55.820;37.490;2023-07-29T02:20:25;4.38;;;2.97;;
80381;SDS011;69692;55.820;37.490;2023-07-29T02:22:51;7.78;;;4.18;;
80381;SDS011;69692;55.820;37.490;2023-07-29T02:25:17;5.47;;;3.15;;
80381;SDS011;69692;55.820;37.490;2023-07-29T02:27:45;6.40;;;3.55;;
80381;SDS011;69692;55.820;37.490;2023-07-29T02:30:11;4.53;;;2.83;;
80381;SDS011;69692;55.820;37.490;2023-07-29T02:32:38;4.80;;;3.17;;
80381;SDS011;69692;55.820;37.490;2023-07-29T02:35:05;9.25;;;3.15;;
80381;SDS011;69692;55.820;37.490;2023-07-29T02:37:32;7.80;;;3.13;;
80381;SDS011;69692;55.820;37.490;2023-07-29T02:39:58;6.50;;;3.80;;
80381;SDS011;69692;55.820;37.490;2023-07-29T02:42:23;4.78;;;3.25;;
80381;SDS011;69692;55.820;37.490;2023-07-29T02:44:49;7.95;;;3.95;;
80381;SDS011;69692;55.820;37.490;2023-07-29T02:47:15;5.40;;;3.70;;
80381;SDS011;69692;55.820;37.490;2023-07-29T02:49:41;6.00;;;4.03;;
80381;SDS011;69692;55.820;37.490;2023-07-29T02:52:07;5.10;;;3.88;;
80381;SDS011;69692;55.820;37.490;2023-07-29T02:54:33;6.53;;;3.85;;
80381;SDS011;69692;55.820;37.490;2023-07-29T02:56:59;5.45;;;4.07;;
80381;SDS011;69692;55.820;37.490;2023-07-29T02:59:26;5.57;;;3.00;;
80381;SDS011;69692;55.820;37.490;2023-07-29T03:01:52;8.13;;;3.83;;
80381;SDS011;69692;55.820;37.490;2023-07-29T03:04:19;9.25;;;4.30;;
80381;SDS011;69692;55.820;37.490;2023-07-29T03:06:45;6.18;;;4.13;;
80381;SDS011;69692;55.820;37.490;2023-07-29T03:09:14;5.03;;;3.38;;
80381;SDS011;69692;55.820;37.490;2023-07-29T03:11:40;5.55;;;3.80;;
80381;SDS011;69692;55.820;37.490;2023-07-29T03:14:06;6.57;;;3.85;;
80381;SDS011;69692;55.820;37.490;2023-07-29T03:16:32;7.35;;;4.20;;
80381;SDS011;69692;55.820;37.490;2023-07-29T03:19:00;5.40;;;4.00;;
80381;SDS011;69692;55.820;37.490;2023-07-29T03:21:26;5.03;;;4.40;;
80381;SDS011;69692;55.820;37.490;2023-07-29T03:23:52;5.85;;;4.43;;
80381;SDS011;69692;55.820;37.490;2023-07-29T03:26:18;8.60;;;5.50;;
80381;SDS011;69692;55.820;37.490;2023-07-29T03:28:44;7.15;;;4.10;;
80381;SDS011;69692;55.820;37.490;2023-07-29T03:31:10;7.05;;;4.60;;
80381;SDS011;69692;55.820;37.490;2023-07-29T03:33:37;7.10;;;4.55;;
80381;SDS011;69692;55.820;37.490;2023-07-29T03:36:03;7.15;;;4.20;;
80381;SDS011;69692;55.820;37.490;2023-07-29T03:38:29;6.20;;;5.38;;
80381;SDS011;69692;55.820;37.490;2023-07-29T03:40:55;6.22;;;4.30;;
80381;SDS011;69692;55.820;37.490;2023-07-29T03:43:22;6.15;;;4.35;;
80381;SDS011;69692;55.820;37.490;2023-07-29T03:45:48;5.93;;;3.97;;
80381;SDS011;69692;55.820;37.490;2023-07-29T03:48:14;7.18;;;5.35;;
80381;SDS011;69692;55.820;37.490;2023-07-29T03:50:40;6.22;;;3.95;;
80381;SDS011;69692;55.820;37.490;2023-07-29T03:53:06;6.32;;;4.63;;
80381;SDS011;69692;55.820;37.490;2023-07-29T03:55:32;7.53;;;4.93;;
80381;SDS011;69692;55.820;37.490;2023-07-29T03:57:59;8.15;;;5.30;;
80381;SDS011;69692;55.820;37.490;2023-07-29T04:00:27;6.65;;;4.80;;
80381;SDS011;69692;55.820;37.490;2023-07-29T04:02:54;6.05;;;5.45;;
80381;SDS011;69692;55.820;37.490;2023-07-29T04:05:20;7.30;;;4.30;;
80381;SDS011;69692;55.820;37.490;2023-07-29T04:07:47;5.60;;;4.28;;
80381;SDS011;69692;55.820;37.490;2023-07-29T04:10:14;6.07;;;4.57;;
80381;SDS011;69692;55.820;37.490;2023-07-29T04:12:41;7.72;;;5.60;;
80381;SDS011;69692;55.820;37.490;2023-07-29T04:15:07;5.82;;;4.00;;
80381;SDS011;69692;55.820;37.490;2023-07-29T04:17:33;8.63;;;5.38;;
80381;SDS011;69692;55.820;37.490;2023-07-29T04:19:59;6.43;;;4.90;;
80381;SDS011;69692;55.820;37.490;2023-07-29T04:22:31;8.13;;;5.47;;
80381;SDS011;69692;55.820;37.490;2023-07-29T04:24:57;6.90;;;4.60;;
80381;SDS011;69692;55.820;37.490;2023-07-29T04:27:23;7.38;;;4.43;;
80381;SDS011;69692;55.820;37.490;2023-07-29T04:29:49;9.45;;;6.13;;
80381;SDS011;69692;55.820;37.490;2023-07-29T04:32:15;6.88;;;4.38;;
80381;SDS011;69692;55.820;37.490;2023-07-29T04:34:42;6.82;;;4.18;;
80381;SDS011;69692;55.820;37.490;2023-07-29T04:37:08;8.30;;;4.70;;
80381;SDS011;69692;55.820;37.490;2023-07-29T04:39:34;7.53;;;5.38;;
80381;SDS011;69692;55.820;37.490;2023-07-29T04:42:01;6.80;;;4.32;;
80381;SDS011;69692;55.820;37.490;2023-07-29T04:44:27;5.95;;;4.30;;
80381;SDS011;69692;55.820;37.490;2023-07-29T04:46:53;5.15;;;3.83;;
80381;SDS011;69692;55.820;37.490;2023-07-29T04:49:19;6.35;;;4.85;;
80381;SDS011;69692;55.820;37.490;2023-07-29T04:51:46;9.27;;;5.78;;
80381;SDS011;69692;55.820;37.490;2023-07-29T04:54:13;6.55;;;4.22;;
80381;SDS011;69692;55.820;37.490;2023-07-29T04:56:39;7.38;;;5.35;;
80381;SDS011;69692;55.820;37.490;2023-07-29T04:59:04;7.68;;;4.65;;
80381;SDS011;69692;55.820;37.490;2023-07-29T05:01:31;6.60;;;4.72;;
80381;SDS011;69692;55.820;37.490;2023-07-29T05:03:57;6.10;;;3.95;;
80381;SDS011;69692;55.820;37.490;2023-07-29T05:06:23;7.43;;;4.15;;
80381;SDS011;69692;55.820;37.490;2023-07-29T05:08:49;6.72;;;4.68;;
80381;SDS011;69692;55.820;37.490;2023-07-29T05:11:15;5.60;;;4.40;;
80381;SDS011;69692;55.820;37.490;2023-07-29T05:13:42;6.97;;;5.15;;
80381;SDS011;69692;55.820;37.490;2023-07-29T05:16:10;8.07;;;4.30;;
80381;SDS011;69692;55.820;37.490;2023-07-29T05:18:36;5.20;;;3.90;;
80381;SDS011;69692;55.820;37.490;2023-07-29T05:21:04;7.28;;;3.70;;
80381;SDS011;69692;55.820;37.490;2023-07-29T05:23:30;6.20;;;4.00;;
80381;SDS011;69692;55.820;37.490;2023-07-29T05:25:56;8.15;;;4.45;;
80381;SDS011;69692;55.820;37.490;2023-07-29T05:28:22;4.75;;;3.65;;
80381;SDS011;69692;55.820;37.490;2023-07-29T05:30:48;6.07;;;3.67;;
80381;SDS011;69692;55.820;37.490;2023-07-29T05:33:15;6.25;;;3.47;;
80381;SDS011;69692;55.820;37.490;2023-07-29T05:35:41;5.05;;;3.47;;
80381;SDS011;69692;55.820;37.490;2023-07-29T05:38:07;6.40;;;3.67;;
80381;SDS011;69692;55.820;37.490;2023-07-29T05:40:34;4.88;;;3.20;;
80381;SDS011;69692;55.820;37.490;2023-07-29T05:43:01;4.60;;;3.92;;
80381;SDS011;69692;55.820;37.490;2023-07-29T05:45:28;6.85;;;3.65;;
80381;SDS011;69692;55.820;37.490;2023-07-29T05:47:57;6.72;;;3.92;;
80381;SDS011;69692;55.820;37.490;2023-07-29T05:50:23;4.95;;;3.70;;
80381;SDS011;69692;55.820;37.490;2023-07-29T05:52:49;7.25;;;3.13;;
80381;SDS011;69692;55.820;37.490;2023-07-29T05:55:15;6.22;;;4.07;;
80381;SDS011;69692;55.820;37.490;2023-07-29T05:57:41;7.30;;;3.30;;
80381;SDS011;69692;55.820;37.490;2023-07-29T06:00:07;6.55;;;3.40;;
80381;SDS011;69692;55.820;37.490;2023-07-29T06:02:42;4.55;;;2.95;;
80381;SDS011;69692;55.820;37.490;2023-07-29T06:05:13;5.25;;;3.95;;
80381;SDS011;69692;55.820;37.490;2023-07-29T06:07:38;5.35;;;3.47;;
80381;SDS011;69692;55.820;37.490;2023-07-29T06:10:09;5.75;;;3.47;;
80381;SDS011;69692;55.820;37.490;2023-07-29T06:12:39;5.32;;;4.20;;
80381;SDS011;69692;55.820;37.490;2023-07-29T06:15:05;5.13;;;3.28;;
80381;SDS011;69692;55.820;37.490;2023-07-29T06:17:31;5.13;;;3.67;;
80381;SDS011;69692;55.820;37.490;2023-07-29T06:19:57;5.50;;;2.92;;
80381;SDS011;69692;55.820;37.490;2023-07-29T06:22:22;4.32;;;3.00;;
80381;SDS011;69692;55.820;37.490;2023-07-29T06:24:48;5.80;;;4.07;;
80381;SDS011;69692;55.820;37.490;2023-07-29T06:27:14;6.20;;;3.53;;
80381;SDS011;69692;55.820;37.490;2023-07-29T06:29:40;5.60;;;4.40;;
80381;SDS011;69692;55.820;37.490;2023-07-29T06:32:06;5.57;;;3.45;;
80381;SDS011;69692;55.820;37.490;2023-07-29T06:34:32;7.40;;;3.75;;
80381;SDS011;69692;55.820;37.490;2023-07-29T06:36:58;5.00;;;3.78;;
80381;SDS011;69692;55.820;37.490;2023-07-29T06:39:23;5.28;;;3.20;;
80381;SDS011;69692;55.820;37.490;2023-07-29T06:41:49;4.70;;;4.13;;
80381;SDS011;69692;55.820;37.490;2023-07-29T06:44:17;8.10;;;2.33;;
80381;SDS011;69692;55.820;37.490;2023-07-29T06:46:43;4.10;;;2.40;;
80381;SDS011;69692;55.820;37.490;2023-07-29T06:49:09;3.88;;;3.17;;
80381;SDS011;69692;55.820;37.490;2023-07-29T06:51:35;3.75;;;2.72;;
80381;SDS011;69692;55.820;37.490;2023-07-29T06:54:02;4.95;;;3.28;;
80381;SDS011;69692;55.820;37.490;2023-07-29T06:56:29;6.53;;;3.55;;
80381;SDS011;69692;55.820;37.490;2023-07-29T06:58:55;6.38;;;4.60;;
80381;SDS011;69692;55.820;37.490;2023-07-29T07:01:21;6.20;;;3.85;;
80381;SDS011;69692;55.820;37.490;2023-07-29T07:03:47;5.75;;;3.70;;
80381;SDS011;69692;55.820;37.490;2023-07-29T07:06:13;5.72;;;3.83;;
80381;SDS011;69692;55.820;37.490;2023-07-29T07:08:39;5.95;;;3.92;;
80381;SDS011;69692;55.820;37.490;2023-07-29T07:11:06;7.28;;;5.05;;
80381;SDS011;69692;55.820;37.490;2023-07-29T07:13:32;4.22;;;3.10;;
80381;SDS011;69692;55.820;37.490;2023-07-29T07:15:58;7.85;;;3.92;;
80381;SDS011;69692;55.820;37.490;2023-07-29T07:18:24;5.50;;;4.90;;
80381;SDS011;69692;55.820;37.490;2023-07-29T07:20:50;5.85;;;4.70;;
80381;SDS011;69692;55.820;37.490;2023-07-29T07:23:17;5.05;;;3.70;;
80381;SDS011;69692;55.820;37.490;2023-07-29T07:25:43;9.13;;;4.90;;
80381;SDS011;69692;55.820;37.490;2023-07-29T07:28:09;6.93;;;4.25;;
80381;SDS011;69692;55.820;37.490;2023-07-29T07:30:39;7.22;;;4.90;;
80381;SDS011;69692;55.820;37.490;2023-07-29T07:33:07;5.75;;;4.40;;
80381;SDS011;69692;55.820;37.490;2023-07-29T07:35:33;4.95;;;3.95;;
80381;SDS011;69692;55.820;37.490;2023-07-29T07:37:58;5.65;;;5.03;;
80381;SDS011;69692;55.820;37.490;2023-07-29T07:40:27;8.82;;;5.22;;
80381;SDS011;69692;55.820;37.490;2023-07-29T07:42:53;6.53;;;4.68;;
80381;SDS011;69692;55.820;37.490;2023-07-29T07:45:19;7.70;;;5.07;;
80381;SDS011;69692;55.820;37.490;2023-07-29T07:47:45;6.07;;;4.90;;
80381;SDS011;69692;55.820;37.490;2023-07-29T07:50:11;7.68;;;5.75;;
80381;SDS011;69692;55.820;37.490;2023-07-29T07:52:37;7.65;;;4.40;;
80381;SDS011;69692;55.820;37.490;2023-07-29T07:55:03;5.68;;;4.00;;
80381;SDS011;69692;55.820;37.490;2023-07-29T07:57:29;6.28;;;4.25;;
80381;SDS011;69692;55.820;37.490;2023-07-29T07:59:55;5.63;;;4.18;;
80381;SDS011;69692;55.820;37.490;2023-07-29T08:02:21;7.68;;;4.20;;
80381;SDS011;69692;55.820;37.490;2023-07-29T08:04:47;8.32;;;5.38;;
80381;SDS011;69692;55.820;37.490;2023-07-29T08:07:12;9.05;;;6.72;;
80381;SDS011;69692;55.820;37.490;2023-07-29T08:09:38;9.18;;;5.00;;
80381;SDS011;69692;55.820;37.490;2023-07-29T08:12:04;8.52;;;4.80;;
80381;SDS011;69692;55.820;37.490;2023-07-29T08:14:31;7.32;;;6.05;;
80381;SDS011;69692;55.820;37.490;2023-07-29T08:16:57;6.50;;;4.10;;
80381;SDS011;69692;55.820;37.490;2023-07-29T08:19:22;6.13;;;3.90;;
80381;SDS011;69692;55.820;37.490;2023-07-29T08:21:48;4.63;;;3.45;;
80381;SDS011;69692;55.820;37.490;2023-07-29T08:24:14;8.80;;;4.90;;
80381;SDS011;69692;55.820;37.490;2023-07-29T08:26:40;7.57;;;3.95;;
80381;SDS011;69692;55.820;37.490;2023-07-29T08:29:06;7.82;;;5.00;;
80381;SDS011;69692;55.820;37.490;2023-07-29T08:31:31;6.68;;;4.80;;
80381;SDS011;69692;55.820;37.490;2023-07-29T08:33:59;6.13;;;3.92;;
80381;SDS011;69692;55.820;37.490;2023-07-29T08:36:26;7.03;;;4.07;;
80381;SDS011;69692;55.820;37.490;2023-07-29T08:38:52;5.78;;;3.75;;
80381;SDS011;69692;55.820;37.490;2023-07-29T08:41:36;6.22;;;4.30;;
80381;SDS011;69692;55.820;37.490;2023-07-29T08:44:09;5.80;;;4.47;;
80381;SDS011;69692;55.820;37.490;2023-07-29T08:46:44;6.70;;;5.57;;
80381;SDS011;69692;55.820;37.490;2023-07-29T08:49:11;7.35;;;4.72;;
80381;SDS011;69692;55.820;37.490;2023-07-29T08:51:39;7.43;;;4.93;;
80381;SDS011;69692;55.820;37.490;2023-07-29T08:54:07;9.75;;;4.72;;
80381;SDS011;69692;55.820;37.490;2023-07-29T08:56:35;5.45;;;4.85;;
80381;SDS011;69692;55.820;37.490;2023-07-29T08:59:02;8.10;;;4.88;;
80381;SDS011;69692;55.820;37.490;2023-07-29T09:01:30;6.85;;;3.97;;
80381;SDS011;69692;55.820;37.490;2023-07-29T09:03:56;6.40;;;5.13;;
80381;SDS011;69692;55.820;37.490;2023-07-29T09:06:22;6.32;;;4.47;;
80381;SDS011;69692;55.820;37.490;2023-07-29T09:08:51;5.97;;;4.03;;
80381;SDS011;69692;55.820;37.490;2023-07-29T09:11:19;7.57;;;4.57;;
80381;SDS011;69692;55.820;37.490;2023-07-29T09:13:46;8.57;;;6.03;;
80381;SDS011;69692;55.820;37.490;2023-07-29T09:16:13;7.53;;;4.15;;
80381;SDS011;69692;55.820;37.490;2023-07-29T09:18:39;7.18;;;4.60;;
80381;SDS011;69692;55.820;37.490;2023-07-29T09:21:05;7.40;;;4.65;;
80381;SDS011;69692;55.820;37.490;2023-07-29T09:23:40;7.40;;;4.85;;
80381;SDS011;69692;55.820;37.490;2023-07-29T09:26:07;6.45;;;4.97;;
80381;SDS011;69692;55.820;37.490;2023-07-29T09:28:34;7.72;;;4.25;;
80381;SDS011;69692;55.820;37.490;2023-07-29T09:31:02;8.88;;;5.10;;
80381;SDS011;69692;55.820;37.490;2023-07-29T09:33:29;6.85;;;4.25;;
80381;SDS011;69692;55.820;37.490;2023-07-29T09:35:57;6.22;;;4.90;;
80381;SDS011;69692;55.820;37.490;2023-07-29T09:38:26;6.75;;;5.20;;
80381;SDS011;69692;55.820;37.490;2023-07-29T09:40:56;6.63;;;4.38;;
80381;SDS011;69692;55.820;37.490;2023-07-29T09:43:29;6.82;;;4.35;;
80381;SDS011;69692;55.820;37.490;2023-07-29T09:46:00;7.10;;;4.60;;
80381;SDS011;69692;55.820;37.490;2023-07-29T09:48:27;7.43;;;4.28;;
80381;SDS011;69692;55.820;37.490;2023-07-29T09:50:56;8.00;;;5.35;;
80381;SDS011;69692;55.820;37.490;2023-07-29T09:53:22;5.45;;;3.78;;
80381;SDS011;69692;55.820;37.490;2023-07-29T09:55:49;5.15;;;4.22;;
80381;SDS011;69692;55.820;37.490;2023-07-29T09:58:36;5.78;;;4.35;;
80381;SDS011;69692;55.820;37.490;2023-07-29T10:01:06;6.18;;;3.92;;
80381;SDS011;69692;55.820;37.490;2023-07-29T10:03:33;5.35;;;3.90;;
80381;SDS011;69692;55.820;37.490;2023-07-29T10:06:04;6.63;;;5.00;;
80381;SDS011;69692;55.820;37.490;2023-07-29T10:11:07;6.85;;;4.20;;
80381;SDS011;69692;55.820;37.490;2023-07-29T10:13:34;5.75;;;4.13;;
80381;SDS011;69692;55.820;37.490;2023-07-29T10:16:02;5.95;;;4.45;;
80381;SDS011;69692;55.820;37.490;2023-07-29T10:18:29;6.65;;;4.20;;
80381;SDS011;69692;55.820;37.490;2023-07-29T10:21:00;6.03;;;4.40;;
80381;SDS011;69692;55.820;37.490;2023-07-29T10:23:27;5.82;;;4.18;;
80381;SDS011;69692;55.820;37.490;2023-07-29T10:26:02;5.45;;;4.72;;
80381;SDS011;69692;55.820;37.490;2023-07-29T10:28:30;9.80;;;5.47;;
80381;SDS011;69692;55.820;37.490;2023-07-29T10:30:57;4.40;;;3.63;;
80381;SDS011;69692;55.820;37.490;2023-07-29T10:33:23;6.20;;;4.13;;
80381;SDS011;69692;55.820;37.490;2023-07-29T10:35:49;5.80;;;4.38;;
80381;SDS011;69692;55.820;37.490;2023-07-29T10:38:16;13.38;;;4.63;;
80381;SDS011;69692;55.820;37.490;2023-07-29T10:40:54;5.55;;;4.47;;
80381;SDS011;69692;55.820;37.490;2023-07-29T10:43:24;5.78;;;4.38;;
80381;SDS011;69692;55.820;37.490;2023-07-29T10:45:51;7.43;;;5.93;;
80381;SDS011;69692;55.820;37.490;2023-07-29T10:48:40;6.50;;;4.78;;
80381;SDS011;69692;55.820;37.490;2023-07-29T10:53:57;8.07;;;4.82;;
80381;SDS011;69692;55.820;37.490;2023-07-29T10:56:35;10.38;;;5.63;;
80381;SDS011;69692;55.820;37.490;2023-07-29T10:59:22;6.57;;;4.22;;
80381;SDS011;69692;55.820;37.490;2023-07-29T11:01:57;6.45;;;4.22;;
80381;SDS011;69692;55.820;37.490;2023-07-29T11:04:25;6.00;;;4.72;;
80381;SDS011;69692;55.820;37.490;2023-07-29T11:07:19;10.52;;;5.43;;
80381;SDS011;69692;55.820;37.490;2023-07-29T11:12:41;6.35;;;4.82;;
80381;SDS011;69692;55.820;37.490;2023-07-29T11:15:24;8.23;;;5.35;;
80381;SDS011;69692;55.820;37.490;2023-07-29T11:17:52;7.68;;;5.82;;
80381;SDS011;69692;55.820;37.490;2023-07-29T11:20:24;8.18;;;5.57;;
80381;SDS011;69692;55.820;37.490;2023-07-29T11:22:52;5.45;;;4.25;;
80381;SDS011;69692;55.820;37.490;2023-07-29T11:25:20;6.40;;;4.20;;
80381;SDS011;69692;55.820;37.490;2023-07-29T11:27:47;6.90;;;4.15;;
80381;SDS011;69692;55.820;37.490;2023-07-29T11:30:13;7.13;;;4.93;;
80381;SDS011;69692;55.820;37.490;2023-07-29T11:32:42;8.20;;;5.30;;
80381;SDS011;69692;55.820;37.490;2023-07-29T11:35:11;7.00;;;5.45;;
80381;SDS011;69692;55.820;37.490;2023-07-29T11:37:41;7.00;;;4.90;;
80381;SDS011;69692;55.820;37.490;2023-07-29T11:40:09;5.93;;;4.20;;
80381;SDS011;69692;55.820;37.490;2023-07-29T11:42:38;6.57;;;5.13;;
80381;SDS011;69692;55.820;37.490;2023-07-29T11:45:05;7.28;;;4.50;;
80381;SDS011;69692;55.820;37.490;2023-07-29T11:47:35;5.82;;;4.25;;
80381;SDS011;69692;55.820;37.490;2023-07-29T11:50:03;6.30;;;3.60;;
80381;SDS011;69692;55.820;37.490;2023-07-29T11:52:31;7.03;;;4.60;;
80381;SDS011;69692;55.820;37.490;2023-07-29T11:55:01;6.22;;;3.92;;
80381;SDS011;69692;55.820;37.490;2023-07-29T11:57:29;4.90;;;3.95;;
80381;SDS011;69692;55.820;37.490;2023-07-29T11:59:56;6.45;;;3.53;;
80381;SDS011;69692;55.820;37.490;2023-07-29T12:02:23;9.05;;;3.72;;
80381;SDS011;69692;55.820;37.490;2023-07-29T12:04:50;6.50;;;3.85;;
80381;SDS011;69692;55.820;37.490;2023-07-29T12:07:17;6.68;;;3.85;;
80381;SDS011;69692;55.820;37.490;2023-07-29T12:09:44;8.88;;;6.93;;
80381;SDS011;69692;55.820;37.490;2023-07-29T12:12:11;8.55;;;4.65;;
80381;SDS011;69692;55.820;37.490;2023-07-29T12:14:37;6.65;;;4.43;;
80381;SDS011;69692;55.820;37.490;2023-07-29T12:17:04;6.70;;;3.90;;
80381;SDS011;69692;55.820;37.490;2023-07-29T12:19:32;6.55;;;4.55;;
80381;SDS011;69692;55.820;37.490;2023-07-29T12:22:00;5.88;;;4.43;;
80381;SDS011;69692;55.820;37.490;2023-07-29T12:24:26;5.68;;;4.70;;
80381;SDS011;69692;55.820;37.490;2023-07-29T12:26:52;5.55;;;3.90;;
80381;SDS011;69692;55.820;37.490;2023-07-29T12:29:18;5.45;;;3.65;;
80381;SDS011;69692;55.820;37.490;2023-07-29T12:31:48;5.50;;;3.78;;
80381;SDS011;69692;55.820;37.490;2023-07-29T12:34:18;6.95;;;3.63;;
80381;SDS011;69692;55.820;37.490;2023-07-29T12:36:46;5.22;;;2.92;;
80381;SDS011;69692;55.820;37.490;2023-07-29T12:39:18;3.95;;;3.55;;
80381;SDS011;69692;55.820;37.490;2023-07-29T12:41:48;5.55;;;3.40;;
80381;SDS011;69692;55.820;37.490;2023-07-29T12:44:15;6.60;;;3.10;;
80381;SDS011;69692;55.820;37.490;2023-07-29T12:46:41;5.53;;;3.40;;
80381;SDS011;69692;55.820;37.490;2023-07-29T12:49:07;6.20;;;2.97;;
80381;SDS011;69692;55.820;37.490;2023-07-29T12:51:33;4.57;;;2.75;;
80381;SDS011;69692;55.820;37.490;2023-07-29T12:53:59;5.30;;;2.88;;
80381;SDS011;69692;55.820;37.490;2023-07-29T12:56:25;6.72;;;3.90;;
80381;SDS011;69692;55.820;37.490;2023-07-29T12:58:52;4.70;;;2.88;;
80381;SDS011;69692;55.820;37.490;2023-07-29T13:01:18;3.92;;;2.63;;
80381;SDS011;69692;55.820;37.490;2023-07-29T13:03:44;4.57;;;2.55;;
80381;SDS011;69692;55.820;37.490;2023-07-29T13:06:10;5.60;;;2.33;;
80381;SDS011;69692;55.820;37.490;2023-07-29T13:08:36;5.25;;;2.70;;
80381;SDS011;69692;55.820;37.490;2023-07-29T13:11:03;3.58;;;2.33;;
80381;SDS011;69692;55.820;37.490;2023-07-29T13:13:29;5.93;;;2.88;;
80381;SDS011;69692;55.820;37.490;2023-07-29T13:15:55;4.72;;;3.50;;
80381;SDS011;69692;55.820;37.490;2023-07-29T13:18:22;4.45;;;2.95;;
80381;SDS011;69692;55.820;37.490;2023-07-29T13:20:47;4.22;;;3.35;;
80381;SDS011;69692;55.820;37.490;2023-07-29T13:23:13;5.03;;;2.85;;
80381;SDS011;69692;55.820;37.490;2023-07-29T13:25:41;5.40;;;2.47;;
80381;SDS011;69692;55.820;37.490;2023-07-29T13:28:08;6.15;;;3.25;;
80381;SDS011;69692;55.820;37.490;2023-07-29T13:30:35;5.18;;;2.65;;
80381;SDS011;69692;55.820;37.490;2023-07-29T13:33:01;5.10;;;2.50;;
80381;SDS011;69692;55.820;37.490;2023-07-29T13:35:26;6.30;;;2.55;;
80381;SDS011;69692;55.820;37.490;2023-07-29T13:37:53;7.63;;;2.72;;
80381;SDS011;69692;55.820;37.490;2023-07-29T13:40:19;5.53;;;3.38;;
80381;SDS011;69692;55.820;37.490;2023-07-29T13:42:46;6.18;;;3.35;;
80381;SDS011;69692;55.820;37.490;2023-07-29T13:45:12;5.05;;;2.60;;
80381;SDS011;69692;55.820;37.490;2023-07-29T13:47:37;5.72;;;3.28;;
80381;SDS011;69692;55.820;37.490;2023-07-29T13:50:03;7.50;;;3.72;;
80381;SDS011;69692;55.820;37.490;2023-07-29T13:52:30;4.95;;;3.03;;
80381;SDS011;69692;55.820;37.490;2023-07-29T13:54:55;5.25;;;3.08;;
80381;SDS011;69692;55.820;37.490;2023-07-29T13:57:21;6.95;;;2.95;;
80381;SDS011;69692;55.820;37.490;2023-07-29T13:59:47;5.18;;;3.22;;
80381;SDS011;69692;55.820;37.490;2023-07-29T14:02:13;6.00;;;3.15;;
80381;SDS011;69692;55.820;37.490;2023-07-29T14:04:39;4.75;;;3.22;;
80381;SDS011;69692;55.820;37.490;2023-07-29T14:07:04;6.90;;;3.03;;
80381;SDS011;69692;55.820;37.490;2023-07-29T14:09:30;6.65;;;3.50;;
80381;SDS011;69692;55.820;37.490;2023-07-29T14:11:56;7.40;;;2.97;;
80381;SDS011;69692;55.820;37.490;2023-07-29T14:14:22;4.95;;;2.47;;
80381;SDS011;69692;55.820;37.490;2023-07-29T14:16:48;5.93;;;3.00;;
80381;SDS011;69692;55.820;37.490;2023-07-29T14:19:14;7.20;;;2.85;;
80381;SDS011;69692;55.820;37.490;2023-07-29T14:21:40;4.30;;;2.70;;
80381;SDS011;69692;55.820;37.490;2023-07-29T14:24:06;7.20;;;2.95;;
80381;SDS011;69692;55.820;37.490;2023-07-29T14:26:32;4.22;;;3.20;;
80381;SDS011;69692;55.820;37.490;2023-07-29T14:28:58;4.65;;;2.70;;
80381;SDS011;69692;55.820;37.490;2023-07-29T14:31:23;4.75;;;3.20;;
80381;SDS011;69692;55.820;37.490;2023-07-29T14:33:49;4.68;;;3.13;;
80381;SDS011;69692;55.820;37.490;2023-07-29T14:36:15;3.83;;;3.42;;
80381;SDS011;69692;55.820;37.490;2023-07-29T14:38:41;3.30;;;2.08;;
80381;SDS011;69692;55.820;37.490;2023-07-29T14:41:08;6.93;;;3.10;;
80381;SDS011;69692;55.820;37.490;2023-07-29T14:43:34;3.85;;;2.72;;
80381;SDS011;69692;55.820;37.490;2023-07-29T14:46:00;7.20;;;3.05;;
80381;SDS011;69692;55.820;37.490;2023-07-29T14:48:27;5.28;;;3.17;;
80381;SDS011;69692;55.820;37.490;2023-07-29T14:50:53;6.05;;;3.15;;